Time;durP1;ratioP1;P1;durP2;ratioP2;P2;SDS_P1;SDS_P2;PMS_P1;PMS_P2;Temp;Humidity;BMP_temperature;BMP_pressure;BME280_temperature;BME280_humidity;BME280_pressure;Samples;Min_cycle;Max_cycle;Signal;HPM_P1;HPM_P2
2023/01/21 00:02:11;;;;;;;19.83;8.07;;;0.10;91.00;;;;;;4968385;28;87358;-73
2023/01/21 00:04:37;;;;;;;21.02;8.48;;;0.10;90.90;;;;;;4965740;28;87966;-74
2023/01/21 00:07:06;;;;;;;22.15;7.28;;;0.10;90.90;;;;;;4963776;28;86675;-73
2023/01/21 00:09:33;;;;;;;18.23;6.85;;;0.10;90.70;;;;;;4973083;28;87662;-74
2023/01/21 00:12:01;;;;;;;16.98;7.38;;;0.10;90.80;;;;;;4962798;28;87361;-74
2023/01/21 00:14:28;;;;;;;18.63;7.47;;;0.10;91.00;;;;;;4967025;28;88755;-73
2023/01/21 00:16:54;;;;;;;20.38;6.90;;;0.10;91.30;;;;;;4967829;28;87484;-72
2023/01/21 00:19:20;;;;;;;17.27;6.75;;;0.10;91.10;;;;;;4969311;28;88271;-71
2023/01/21 00:21:45;;;;;;;16.60;6.95;;;0.10;91.20;;;;;;4963409;28;88598;-71
2023/01/21 00:24:11;;;;;;;19.25;8.20;;;0.10;91.10;;;;;;4967133;28;87398;-71
2023/01/21 00:26:37;;;;;;;22.23;7.68;;;0.00;91.10;;;;;;4971943;28;87645;-71
2023/01/21 00:29:03;;;;;;;20.40;7.35;;;0.00;91.50;;;;;;4978088;28;88291;-71
2023/01/21 00:31:28;;;;;;;18.38;6.95;;;-0.10;91.40;;;;;;4972753;28;89086;-71
2023/01/21 00:33:54;;;;;;;15.75;6.57;;;0.00;91.40;;;;;;4970288;28;87384;-71
2023/01/21 00:36:21;;;;;;;12.75;6.57;;;0.00;91.20;;;;;;4970174;28;88137;-71
2023/01/21 00:38:49;;;;;;;22.27;7.50;;;-0.10;91.10;;;;;;4971104;28;89979;-73
2023/01/21 00:41:16;;;;;;;15.23;6.32;;;-0.10;91.20;;;;;;4965209;28;88437;-72
2023/01/21 00:43:42;;;;;;;17.80;6.55;;;-0.10;90.90;;;;;;4971474;28;87261;-73
2023/01/21 00:46:09;;;;;;;15.63;5.78;;;-0.20;91.20;;;;;;4967735;28;87370;-72
2023/01/21 00:48:35;;;;;;;19.05;7.20;;;-0.30;91.70;;;;;;4969389;28;88853;-73
2023/01/21 00:51:00;;;;;;;21.70;7.40;;;-0.30;91.70;;;;;;4964428;28;89410;-73
2023/01/21 00:53:28;;;;;;;15.27;5.93;;;-0.20;91.40;;;;;;4970373;28;87150;-71
2023/01/21 00:55:59;;;;;;;15.70;6.70;;;-0.20;91.40;;;;;;4971013;28;86771;-72
2023/01/21 00:58:26;;;;;;;14.30;6.05;;;-0.30;91.10;;;;;;4966860;28;89267;-72
2023/01/21 01:01:12;;;;;;;16.98;5.53;;;-0.30;91.50;;;;;;4954611;28;88933;-72
2023/01/21 01:03:38;;;;;;;13.80;5.25;;;-0.30;91.50;;;;;;4954875;28;89395;-70
2023/01/21 01:06:10;;;;;;;12.48;4.75;;;-0.20;91.20;;;;;;4955718;28;89418;-71
2023/01/21 01:08:36;;;;;;;9.52;3.53;;;-0.10;91.10;;;;;;4960724;28;88835;-72
2023/01/21 01:11:02;;;;;;;11.13;4.60;;;0.00;90.70;;;;;;4955342;28;87896;-70
2023/01/21 01:13:28;;;;;;;10.15;4.15;;;0.00;90.70;;;;;;4954036;28;88554;-71
2023/01/21 01:15:56;;;;;;;10.85;4.70;;;0.00;90.40;;;;;;4959382;28;87998;-70
2023/01/21 01:18:24;;;;;;;15.07;5.45;;;0.10;90.40;;;;;;4974656;28;89388;-71
2023/01/21 01:20:49;;;;;;;17.50;7.23;;;0.10;90.70;;;;;;4965653;28;86840;-71
2023/01/21 01:23:15;;;;;;;19.05;7.60;;;0.10;90.60;;;;;;4968254;28;87497;-71
2023/01/21 01:25:41;;;;;;;22.52;8.15;;;0.00;90.60;;;;;;4962916;28;87956;-73
2023/01/21 01:28:06;;;;;;;21.30;7.53;;;0.00;90.70;;;;;;4967493;28;89135;-73
2023/01/21 01:30:34;;;;;;;22.83;9.02;;;0.10;90.70;;;;;;4964163;28;88805;-73
2023/01/21 01:33:00;;;;;;;35.33;14.32;;;0.00;90.50;;;;;;4972230;28;88038;-71
2023/01/21 01:35:26;;;;;;;34.28;13.98;;;0.10;90.50;;;;;;4977178;28;87499;-72
2023/01/21 01:37:52;;;;;;;27.25;10.57;;;0.10;90.50;;;;;;4967168;28;88117;-70
2023/01/21 01:40:18;;;;;;;24.65;9.95;;;0.10;90.50;;;;;;4966674;28;87698;-72
2023/01/21 01:42:44;;;;;;;18.80;7.82;;;0.20;90.60;;;;;;4964027;28;89499;-72
2023/01/21 01:45:20;;;;;;;16.05;6.35;;;0.20;90.50;;;;;;4966288;28;86944;-70
2023/01/21 01:47:57;;;;;;;11.32;4.70;;;0.20;90.40;;;;;;4958441;28;88103;-70
2023/01/21 01:50:26;;;;;;;12.35;5.40;;;0.20;90.20;;;;;;4956710;28;89307;-70
2023/01/21 01:52:51;;;;;;;15.68;4.68;;;0.10;90.30;;;;;;4965041;28;88339;-71
2023/01/21 01:55:17;;;;;;;12.10;4.32;;;0.20;90.30;;;;;;4970337;28;87401;-70
2023/01/21 01:57:48;;;;;;;8.93;3.72;;;0.30;90.00;;;;;;4967904;28;87738;-69
2023/01/21 02:00:15;;;;;;;10.00;3.53;;;0.30;89.80;;;;;;4968317;28;87464;-71
2023/01/21 02:03:42;;;;;;;7.85;3.33;;;0.30;89.60;;;;;;4961847;28;87300;-70
2023/01/21 02:05:28;;;;;;;7.68;3.33;;;0.20;89.70;;;;;;4968414;28;87473;-70
2023/01/21 02:07:54;;;;;;;7.63;3.40;;;0.20;89.40;;;;;;4964486;28;87547;-72
2023/01/21 02:10:20;;;;;;;9.27;3.60;;;0.20;89.30;;;;;;4956812;28;91190;-72
2023/01/21 02:12:45;;;;;;;8.23;3.60;;;0.20;88.90;;;;;;4965505;28;87506;-71
2023/01/21 02:15:11;;;;;;;9.55;3.83;;;0.20;88.90;;;;;;4967276;28;87547;-71
2023/01/21 02:18:13;;;;;;;8.60;3.70;;;0.30;88.70;;;;;;4966386;28;89115;-73
2023/01/21 02:21:09;;;;;;;8.30;3.67;;;0.40;88.10;;;;;;4962658;28;88733;-72
2023/01/21 02:24:01;;;;;;;8.82;3.58;;;0.30;88.10;;;;;;4962218;28;87457;-71
2023/01/21 02:26:30;;;;;;;9.98;3.70;;;0.30;88.10;;;;;;4969017;28;87637;-72
2023/01/21 02:29:22;;;;;;;11.75;4.07;;;0.30;88.30;;;;;;4958380;28;87850;-72
2023/01/21 02:32:06;;;;;;;10.43;4.15;;;0.20;88.60;;;;;;4963054;28;89279;-72
2023/01/21 02:34:37;;;;;;;11.07;4.80;;;0.10;88.80;;;;;;4968170;28;89428;-72
2023/01/21 02:37:13;;;;;;;10.63;4.45;;;0.00;89.00;;;;;;4968292;28;88483;-72
2023/01/21 02:39:42;;;;;;;13.10;5.53;;;0.00;89.70;;;;;;4967393;28;89490;-72
2023/01/21 02:42:19;;;;;;;10.88;5.07;;;0.00;89.80;;;;;;4966873;28;89343;-71
2023/01/21 02:45:05;;;;;;;;;;;0.10;90.00;;;;;;4968071;28;88739;-72
2023/01/21 02:47:42;;;;;;;15.43;6.43;;;0.10;90.30;;;;;;4968295;28;87793;-72
2023/01/21 02:50:14;;;;;;;;;;;0.20;90.20;;;;;;4968741;28;89526;-72
2023/01/21 02:52:39;;;;;;;16.83;6.80;;;0.30;90.30;;;;;;4971076;28;87780;-72
2023/01/21 02:55:11;;;;;;;15.55;6.25;;;0.30;90.40;;;;;;4961742;28;87417;-73
2023/01/21 02:57:40;;;;;;;14.10;6.47;;;0.40;90.50;;;;;;4962654;28;87151;-72
2023/01/21 03:00:12;;;;;;;15.45;6.78;;;0.50;90.40;;;;;;4965690;28;88016;-72
2023/01/21 03:03:26;;;;;;;15.32;6.90;;;0.50;90.30;;;;;;4970406;28;87397;-73
2023/01/21 03:06:29;;;;;;;15.18;7.22;;;0.60;90.50;;;;;;4954821;28;88827;-72
2023/01/21 03:09:13;;;;;;;13.52;6.20;;;0.60;90.30;;;;;;4962549;28;87467;-72
2023/01/21 03:11:43;;;;;;;14.57;6.60;;;0.70;90.30;;;;;;4971305;28;88622;-73
2023/01/21 03:17:12;;;;;;;16.40;6.80;;;0.70;90.20;;;;;;4966200;28;89259;-72
2023/01/21 03:19:41;;;;;;;14.68;6.45;;;0.80;90.00;;;;;;4973380;28;89240;-71
2023/01/21 03:22:20;;;;;;;17.95;6.53;;;0.80;90.00;;;;;;4967617;28;88520;-72
2023/01/21 03:24:49;;;;;;;16.08;6.72;;;0.70;89.80;;;;;;4964048;28;87871;-73
2023/01/21 03:27:18;;;;;;;12.93;5.90;;;0.70;89.60;;;;;;4968188;28;87481;-70
2023/01/21 03:29:47;;;;;;;13.77;6.25;;;0.60;89.20;;;;;;4970367;28;87001;-70
2023/01/21 03:32:15;;;;;;;13.38;6.35;;;0.40;89.30;;;;;;4967048;28;87564;-72
2023/01/21 03:34:46;;;;;;;14.77;6.20;;;0.40;89.80;;;;;;4974662;28;87431;-72
2023/01/21 03:37:19;;;;;;;;;;;0.30;90.10;;;;;;4976153;28;88353;-69
2023/01/21 03:40:34;;;;;;;14.27;6.05;;;0.30;90.20;;;;;;4965842;28;87987;-69
2023/01/21 03:43:00;;;;;;;14.27;6.13;;;0.30;90.10;;;;;;4966895;28;89597;-72
2023/01/21 03:45:44;;;;;;;15.35;6.53;;;0.20;90.30;;;;;;4963565;28;87238;-73
2023/01/21 03:48:19;;;;;;;14.18;6.65;;;0.30;90.50;;;;;;4971393;28;87430;-72
2023/01/21 03:50:52;;;;;;;13.38;6.47;;;0.20;90.70;;;;;;4969515;28;88491;-73
2023/01/21 03:53:18;;;;;;;14.43;6.95;;;0.30;90.80;;;;;;4960033;28;87572;-72
2023/01/21 03:55:44;;;;;;;15.05;6.35;;;0.40;90.90;;;;;;4971701;28;88527;-71
2023/01/21 03:58:10;;;;;;;16.23;7.45;;;0.50;90.80;;;;;;4974440;28;87749;-72
2023/01/21 04:00:35;;;;;;;15.60;7.93;;;0.60;90.70;;;;;;4963118;28;87349;-72
2023/01/21 04:03:01;;;;;;;17.63;8.25;;;0.60;90.70;;;;;;4968247;28;89301;-72
2023/01/21 04:05:27;;;;;;;16.58;7.68;;;0.60;90.60;;;;;;4962020;28;89649;-72
2023/01/21 04:07:52;;;;;;;16.42;7.70;;;0.70;90.70;;;;;;4975360;28;88776;-71
2023/01/21 04:10:18;;;;;;;17.05;8.20;;;0.70;90.60;;;;;;4965604;28;88115;-72
2023/01/21 04:12:43;;;;;;;15.00;7.18;;;0.60;90.80;;;;;;4972596;28;88091;-72
2023/01/21 04:15:09;;;;;;;19.40;8.13;;;0.60;90.70;;;;;;4968932;28;88441;-71
2023/01/21 04:17:35;;;;;;;20.95;8.32;;;0.60;90.70;;;;;;4969619;28;87569;-73
2023/01/21 04:20:01;;;;;;;16.40;8.18;;;0.60;90.80;;;;;;4967138;28;86654;-72
2023/01/21 04:22:26;;;;;;;17.55;7.80;;;0.60;90.90;;;;;;4962502;28;87707;-73
2023/01/21 04:24:52;;;;;;;16.90;8.48;;;0.60;90.90;;;;;;4965078;28;87532;-73
2023/01/21 04:27:17;;;;;;;16.75;8.18;;;0.60;90.90;;;;;;4973727;28;90556;-73
2023/01/21 04:29:43;;;;;;;19.67;8.73;;;0.60;90.90;;;;;;4965929;28;88651;-72
2023/01/21 04:32:09;;;;;;;17.55;9.05;;;0.60;90.90;;;;;;4967189;28;88171;-72
2023/01/21 04:34:34;;;;;;;17.85;8.52;;;0.60;90.80;;;;;;4978132;28;88311;-71
2023/01/21 04:37:00;;;;;;;24.73;9.25;;;0.60;90.90;;;;;;4979251;28;87587;-71
2023/01/21 04:39:26;;;;;;;16.60;7.95;;;0.60;91.00;;;;;;4972312;28;88475;-71
2023/01/21 04:41:51;;;;;;;21.08;9.48;;;0.60;91.10;;;;;;4971698;28;88950;-70
2023/01/21 04:44:17;;;;;;;19.42;9.13;;;0.70;91.00;;;;;;4967034;28;88580;-71
2023/01/21 04:46:42;;;;;;;19.42;8.90;;;0.70;91.00;;;;;;4978619;28;87493;-71
2023/01/21 04:49:08;;;;;;;19.40;8.32;;;0.70;90.90;;;;;;4973386;28;87488;-69
2023/01/21 04:51:34;;;;;;;23.48;10.05;;;0.70;90.80;;;;;;4960840;28;89537;-69
2023/01/21 04:54:00;;;;;;;21.58;9.60;;;0.70;90.90;;;;;;4974666;28;89038;-72
2023/01/21 04:56:26;;;;;;;21.25;9.77;;;0.70;91.00;;;;;;4972809;28;87380;-70
2023/01/21 04:58:52;;;;;;;21.25;10.07;;;0.70;90.90;;;;;;4978360;28;87557;-69
2023/01/21 05:01:17;;;;;;;20.95;9.50;;;0.60;90.80;;;;;;4970639;28;88124;-72
2023/01/21 05:03:43;;;;;;;21.30;8.88;;;0.60;90.70;;;;;;4976916;28;87441;-69
2023/01/21 05:06:08;;;;;;;22.60;10.20;;;0.60;90.70;;;;;;4974826;28;88089;-71
2023/01/21 05:08:34;;;;;;;20.23;9.82;;;0.50;90.50;;;;;;4968295;28;86585;-69
2023/01/21 05:11:00;;;;;;;19.42;9.50;;;0.50;90.30;;;;;;4966090;28;88121;-71
2023/01/21 05:13:25;;;;;;;17.98;8.13;;;0.50;90.40;;;;;;4976351;28;88039;-71
2023/01/21 05:15:51;;;;;;;20.92;8.95;;;0.50;90.60;;;;;;4973173;28;88069;-69
2023/01/21 05:18:17;;;;;;;22.45;10.35;;;0.50;90.90;;;;;;4992144;28;87407;-69
2023/01/21 05:20:42;;;;;;;19.48;9.38;;;0.50;91.20;;;;;;4989947;28;88143;-69
2023/01/21 05:23:08;;;;;;;20.33;9.70;;;0.40;91.60;;;;;;4968431;28;89117;-69
2023/01/21 05:25:34;;;;;;;19.13;9.18;;;0.50;91.50;;;;;;4973579;28;87058;-70
2023/01/21 05:27:59;;;;;;;19.45;8.90;;;0.50;91.50;;;;;;4982012;28;87407;-69
2023/01/21 05:30:25;;;;;;;20.55;9.43;;;0.40;91.50;;;;;;4974764;28;87631;-69
2023/01/21 05:32:54;;;;;;;24.20;9.63;;;0.30;91.50;;;;;;4983913;28;87964;-70
2023/01/21 05:35:21;;;;;;;22.13;9.85;;;0.30;91.40;;;;;;4977276;28;87450;-69
2023/01/21 05:37:46;;;;;;;20.20;9.25;;;0.30;91.30;;;;;;4990968;28;87183;-70
2023/01/21 05:40:16;;;;;;;21.90;9.43;;;0.30;91.50;;;;;;4972303;28;88642;-71
2023/01/21 05:42:42;;;;;;;21.55;10.05;;;0.20;91.50;;;;;;4977724;28;90147;-71
2023/01/21 05:45:10;;;;;;;23.40;9.23;;;0.20;91.50;;;;;;4975389;28;87464;-71
2023/01/21 05:47:36;;;;;;;25.83;10.90;;;0.10;91.70;;;;;;4966296;28;87259;-71
2023/01/21 05:50:03;;;;;;;22.77;10.32;;;0.10;91.80;;;;;;4982194;28;88809;-69
2023/01/21 05:52:28;;;;;;;24.55;9.40;;;0.00;91.90;;;;;;4966419;28;87514;-72
2023/01/21 05:54:54;;;;;;;23.95;10.20;;;0.00;92.00;;;;;;4967400;28;87560;-71
2023/01/21 05:57:20;;;;;;;24.42;9.95;;;0.00;92.10;;;;;;4975919;28;86370;-71
2023/01/21 05:59:46;;;;;;;19.70;9.63;;;0.00;92.10;;;;;;4969742;28;89413;-72
2023/01/21 06:02:11;;;;;;;23.15;10.63;;;0.00;92.10;;;;;;4965062;28;87485;-71
2023/01/21 06:04:37;;;;;;;24.35;10.48;;;0.00;92.10;;;;;;4977262;28;88021;-69
2023/01/21 06:07:02;;;;;;;21.63;10.35;;;0.00;91.90;;;;;;4976030;28;87148;-71
2023/01/21 06:09:28;;;;;;;24.65;10.55;;;-0.10;91.90;;;;;;4981451;28;88444;-72
2023/01/21 06:11:54;;;;;;;24.00;10.30;;;-0.10;92.00;;;;;;4976358;28;87427;-72
2023/01/21 06:14:19;;;;;;;23.65;10.25;;;-0.10;91.80;;;;;;4976093;28;87529;-71
2023/01/21 06:16:45;;;;;;;22.55;10.13;;;-0.10;91.70;;;;;;4967701;28;88451;-72
2023/01/21 06:19:11;;;;;;;23.77;9.90;;;-0.10;91.70;;;;;;4973013;28;88126;-70
2023/01/21 06:21:36;;;;;;;22.38;10.30;;;-0.20;91.70;;;;;;4959928;28;87968;-71
2023/01/21 06:24:02;;;;;;;26.08;10.55;;;-0.20;91.80;;;;;;4964478;28;88677;-70
2023/01/21 06:26:28;;;;;;;25.02;10.98;;;-0.30;91.80;;;;;;4975557;28;87693;-70
2023/01/21 06:28:56;;;;;;;25.02;10.52;;;-0.30;92.10;;;;;;4970220;28;89115;-70
2023/01/21 06:31:22;;;;;;;23.63;10.00;;;-0.30;92.20;;;;;;4970162;28;90877;-70
2023/01/21 06:33:48;;;;;;;22.52;9.98;;;-0.20;92.20;;;;;;4977638;28;87509;-71
2023/01/21 06:36:14;;;;;;;27.30;11.40;;;-0.20;91.90;;;;;;4965495;28;89167;-70
2023/01/21 06:38:39;;;;;;;27.85;11.95;;;-0.30;91.90;;;;;;4967707;28;89284;-70
2023/01/21 06:41:05;;;;;;;24.67;10.15;;;-0.30;92.00;;;;;;4975067;28;88224;-71
2023/01/21 06:43:31;;;;;;;24.08;10.57;;;-0.30;92.10;;;;;;4968531;28;87929;-71
2023/01/21 06:45:56;;;;;;;24.83;11.32;;;-0.20;92.00;;;;;;4981583;28;86509;-71
2023/01/21 06:48:22;;;;;;;29.30;11.05;;;-0.20;92.00;;;;;;4980062;28;88290;-71
2023/01/21 06:50:48;;;;;;;24.58;10.82;;;-0.30;92.10;;;;;;4974867;28;87649;-72
2023/01/21 06:53:13;;;;;;;22.50;9.93;;;-0.20;92.10;;;;;;4978043;28;88277;-71
2023/01/21 06:55:39;;;;;;;25.23;10.30;;;-0.30;92.20;;;;;;4971815;28;87561;-71
2023/01/21 06:58:05;;;;;;;24.13;10.30;;;-0.40;92.10;;;;;;4966978;28;88452;-71
2023/01/21 07:00:30;;;;;;;25.52;10.88;;;-0.40;92.10;;;;;;4964463;28;89413;-71
2023/01/21 07:02:57;;;;;;;23.60;9.80;;;-0.50;92.00;;;;;;4970104;28;87938;-70
2023/01/21 07:05:23;;;;;;;26.05;10.88;;;-0.50;92.10;;;;;;4968268;28;87579;-71
2023/01/21 07:07:49;;;;;;;23.95;10.32;;;-0.40;92.60;;;;;;4965954;28;89197;-73
2023/01/21 07:10:15;;;;;;;27.60;10.98;;;-0.40;92.50;;;;;;4970253;28;88838;-73
2023/01/21 07:12:40;;;;;;;27.80;11.32;;;-0.20;94.40;;;;;;4963779;28;87459;-74
2023/01/21 07:15:07;;;;;;;27.08;9.40;;;-0.20;93.60;;;;;;4963922;28;88671;-72
2023/01/21 07:17:32;;;;;;;26.00;10.32;;;0.00;93.60;;;;;;4968494;28;88596;-70
2023/01/21 07:19:58;;;;;;;24.00;11.10;;;0.10;92.80;;;;;;4968841;28;89073;-71
2023/01/21 07:22:24;;;;;;;24.50;10.52;;;0.10;91.70;;;;;;4973381;28;87376;-72
2023/01/21 07:24:49;;;;;;;23.50;10.32;;;0.20;91.50;;;;;;4979398;28;87364;-71
2023/01/21 07:27:15;;;;;;;25.75;10.52;;;0.10;91.00;;;;;;4966715;28;88801;-71
2023/01/21 07:29:41;;;;;;;26.73;10.75;;;0.10;90.60;;;;;;4972869;28;89530;-71
2023/01/21 07:32:06;;;;;;;24.67;10.65;;;0.00;90.80;;;;;;4979761;28;87543;-71
2023/01/21 07:34:32;;;;;;;25.20;10.57;;;-0.10;90.60;;;;;;4979493;28;86588;-72
2023/01/21 07:36:58;;;;;;;25.77;10.82;;;-0.10;90.70;;;;;;4981096;28;87716;-71
2023/01/21 07:39:24;;;;;;;24.02;10.32;;;-0.10;90.40;;;;;;4968059;28;87951;-72
2023/01/21 07:41:49;;;;;;;24.20;10.27;;;-0.10;90.60;;;;;;4968526;28;88729;-72
2023/01/21 07:44:15;;;;;;;23.88;10.38;;;-0.10;90.50;;;;;;4965034;28;87420;-72
2023/01/21 07:46:41;;;;;;;22.67;9.93;;;-0.10;90.20;;;;;;4971855;28;88467;-72
2023/01/21 07:49:06;;;;;;;24.40;9.95;;;0.00;90.00;;;;;;4976264;28;87937;-72
2023/01/21 07:51:32;;;;;;;25.17;10.10;;;-0.10;89.20;;;;;;4999724;28;87543;-73
2023/01/21 07:53:57;;;;;;;23.83;9.82;;;-0.20;89.30;;;;;;4985603;28;87378;-71
2023/01/21 07:56:25;;;;;;;22.35;9.98;;;-0.30;89.50;;;;;;4977133;28;88118;-73
2023/01/21 07:58:51;;;;;;;23.83;10.00;;;-0.20;89.10;;;;;;4977055;28;88676;-71
2023/01/21 08:01:17;;;;;;;25.40;10.50;;;-0.30;89.20;;;;;;4987740;28;87739;-71
2023/01/21 08:03:42;;;;;;;25.25;10.82;;;-0.30;89.30;;;;;;4974084;28;87411;-71
2023/01/21 08:06:08;;;;;;;25.13;10.50;;;-0.40;89.70;;;;;;4982712;28;89047;-71
2023/01/21 08:08:34;;;;;;;27.33;10.82;;;-0.30;89.80;;;;;;4991124;28;88954;-71
2023/01/21 08:10:59;;;;;;;32.25;11.93;;;-0.30;89.40;;;;;;4996601;28;87769;-72
2023/01/21 08:13:25;;;;;;;25.35;10.70;;;-0.30;89.70;;;;;;4978494;28;87631;-72
2023/01/21 08:15:53;;;;;;;34.03;10.80;;;-0.20;89.50;;;;;;4977965;28;88176;-71
2023/01/21 08:18:20;;;;;;;30.92;11.40;;;-0.20;89.50;;;;;;4977296;28;87467;-72
2023/01/21 08:20:46;;;;;;;29.50;11.52;;;0.10;88.80;;;;;;4966115;28;87383;-72
2023/01/21 08:23:13;;;;;;;30.40;11.63;;;0.30;88.10;;;;;;4979141;28;86694;-72
2023/01/21 08:25:38;;;;;;;25.88;10.25;;;0.40;87.30;;;;;;4978304;28;87620;-70
2023/01/21 08:28:04;;;;;;;25.27;10.68;;;0.40;86.60;;;;;;4977889;28;87885;-72
2023/01/21 08:30:30;;;;;;;25.67;10.15;;;0.60;86.30;;;;;;4984393;28;88445;-71
2023/01/21 08:32:56;;;;;;;23.50;9.88;;;0.80;85.60;;;;;;4985181;28;87330;-71
2023/01/21 08:35:22;;;;;;;22.70;9.60;;;0.90;85.30;;;;;;4977502;28;88248;-73
2023/01/21 08:37:48;;;;;;;25.75;10.32;;;1.00;84.40;;;;;;4969156;28;87012;-73
2023/01/21 08:40:14;;;;;;;24.08;10.50;;;1.00;84.30;;;;;;4980302;28;87578;-73
2023/01/21 08:42:40;;;;;;;25.10;10.82;;;1.10;84.20;;;;;;4985195;28;87738;-73
2023/01/21 08:45:06;;;;;;;26.13;10.38;;;1.20;83.60;;;;;;4977429;28;88618;-73
2023/01/21 08:47:32;;;;;;;28.48;10.60;;;1.20;83.60;;;;;;4974316;28;87951;-72
2023/01/21 08:49:57;;;;;;;22.58;9.77;;;1.50;82.70;;;;;;4978146;28;88929;-73
2023/01/21 08:52:23;;;;;;;23.58;10.23;;;1.60;82.00;;;;;;4974834;28;88587;-73
2023/01/21 08:54:49;;;;;;;24.25;10.35;;;1.60;81.90;;;;;;4968100;28;89960;-73
2023/01/21 08:57:14;;;;;;;24.50;11.10;;;1.60;81.20;;;;;;4991658;28;88257;-71
2023/01/21 08:59:40;;;;;;;25.38;10.75;;;1.50;81.30;;;;;;4983813;28;87374;-73
2023/01/21 09:02:07;;;;;;;24.85;11.35;;;1.70;81.40;;;;;;4992997;28;87289;-73
2023/01/21 09:04:33;;;;;;;22.38;9.30;;;2.20;79.70;;;;;;4997668;28;87998;-73
2023/01/21 09:06:58;;;;;;;24.27;10.80;;;2.80;77.80;;;;;;4996123;28;87126;-73
2023/01/21 09:09:24;;;;;;;24.35;10.57;;;3.30;76.00;;;;;;4994522;28;87619;-72
2023/01/21 09:11:51;;;;;;;23.10;10.55;;;3.50;74.70;;;;;;4974016;28;86792;-71
2023/01/21 09:14:17;;;;;;;21.25;10.38;;;3.30;75.00;;;;;;4977734;28;87726;-72
2023/01/21 09:16:43;;;;;;;27.13;11.07;;;3.10;75.50;;;;;;4977482;28;87731;-72
2023/01/21 09:19:08;;;;;;;24.02;10.77;;;2.80;76.30;;;;;;4977744;28;88484;-71
2023/01/21 09:21:34;;;;;;;25.50;10.98;;;2.70;76.60;;;;;;4979230;28;89159;-72
2023/01/21 09:24:00;;;;;;;24.40;10.85;;;2.60;77.30;;;;;;4976024;28;90454;-72
2023/01/21 09:26:26;;;;;;;22.25;10.27;;;2.30;78.00;;;;;;4977868;28;88328;-73
2023/01/21 09:28:54;;;;;;;25.35;10.60;;;2.10;78.90;;;;;;4975515;28;87403;-71
2023/01/21 09:31:20;;;;;;;24.67;10.18;;;2.00;79.20;;;;;;4976054;28;87738;-71
2023/01/21 09:33:50;;;;;;;24.60;9.90;;;2.00;79.60;;;;;;4977799;28;87785;-71
2023/01/21 09:36:18;;;;;;;22.48;9.90;;;1.80;79.60;;;;;;4978970;28;87856;-71
2023/01/21 09:38:45;;;;;;;24.42;10.43;;;1.80;79.60;;;;;;4978265;28;87413;-71
2023/01/21 09:41:35;;;;;;;25.15;9.50;;;1.80;79.60;;;;;;4976351;28;87467;-73
2023/01/21 09:44:19;;;;;;;24.55;9.73;;;1.70;79.90;;;;;;4974162;28;88642;-71
2023/01/21 09:47:03;;;;;;;28.75;10.27;;;1.70;80.80;;;;;;4968325;28;89035;-73
2023/01/21 09:49:44;;;;;;;23.95;9.85;;;1.80;80.20;;;;;;4977230;28;87366;-72
2023/01/21 09:52:34;;;;;;;23.02;9.77;;;1.90;79.30;;;;;;4983806;28;87044;-72
2023/01/21 09:55:01;;;;;;;21.70;9.75;;;1.80;79.00;;;;;;4998036;28;88962;-72
2023/01/21 09:57:30;;;;;;;23.58;9.65;;;1.90;79.00;;;;;;4984520;28;87410;-72
2023/01/21 10:00:25;;;;;;;24.42;10.25;;;2.00;79.70;;;;;;4998019;28;87297;-72
2023/01/21 10:03:09;;;;;;;26.15;10.52;;;2.20;78.30;;;;;;4972938;28;86855;-72
2023/01/21 10:06:26;;;;;;;23.50;10.05;;;2.50;77.80;;;;;;4995481;28;87560;-72
2023/01/21 10:09:06;;;;;;;;;;;3.10;76.20;;;;;;4976342;28;87123;-73
2023/01/21 10:11:40;;;;;;;21.70;9.50;;;3.30;75.30;;;;;;4978897;28;88271;-73
2023/01/21 10:14:42;;;;;;;23.58;9.95;;;3.10;74.80;;;;;;4977234;28;87325;-73
2023/01/21 10:17:30;;;;;;;22.73;10.98;;;3.00;75.10;;;;;;4977125;28;88725;-73
2023/01/21 10:20:11;;;;;;;25.52;9.60;;;2.90;75.90;;;;;;4966159;28;87982;-72
2023/01/21 10:22:42;;;;;;;26.92;11.07;;;2.80;76.90;;;;;;4973435;28;87156;-70
2023/01/21 10:25:27;;;;;;;26.83;12.00;;;2.90;76.20;;;;;;4997011;28;87488;-71
2023/01/21 10:27:58;;;;;;;25.90;11.38;;;2.80;76.60;;;;;;4992423;28;88065;-71
2023/01/21 10:30:27;;;;;;;;;;;3.00;76.60;;;;;;4973611;28;88277;-71
2023/01/21 10:32:54;;;;;;;23.52;10.85;;;3.00;76.50;;;;;;4970913;28;87637;-71
2023/01/21 10:35:42;;;;;;;24.95;11.35;;;2.90;76.50;;;;;;4976787;28;87238;-71
2023/01/21 10:38:17;;;;;;;24.60;10.85;;;2.90;76.10;;;;;;4971307;28;88946;-71
2023/01/21 10:41:03;;;;;;;28.27;11.93;;;2.80;76.60;;;;;;4991512;28;88877;-71
2023/01/21 10:43:47;;;;;;;25.88;11.90;;;2.80;77.10;;;;;;4979967;28;87716;-73
2023/01/21 10:46:24;;;;;;;25.92;11.82;;;3.00;76.80;;;;;;4986701;28;87400;-71
2023/01/21 10:48:58;;;;;;;25.42;11.38;;;3.30;75.40;;;;;;4981532;28;88709;-72
2023/01/21 10:51:36;;;;;;;24.92;11.50;;;3.20;75.00;;;;;;4996071;28;87355;-73
2023/01/21 10:54:16;;;;;;;24.92;9.90;;;3.20;75.10;;;;;;4980962;28;89767;-71
2023/01/21 10:57:07;;;;;;;31.10;13.38;;;3.00;76.00;;;;;;4977490;28;86775;-73
2023/01/21 10:59:35;;;;;;;28.88;12.57;;;3.10;76.00;;;;;;4984321;28;87385;-71
2023/01/21 11:02:28;;;;;;;26.15;11.38;;;3.00;76.40;;;;;;4975834;28;88059;-72
2023/01/21 11:04:57;;;;;;;27.08;11.02;;;2.90;77.60;;;;;;4975693;28;88309;-71
2023/01/21 11:07:23;;;;;;;26.92;11.60;;;2.80;76.90;;;;;;4981227;28;87421;-71
2023/01/21 11:09:50;;;;;;;24.10;11.57;;;2.90;77.40;;;;;;4967838;28;87325;-71
2023/01/21 11:12:21;;;;;;;26.48;12.00;;;3.10;76.40;;;;;;4975346;28;88829;-71
2023/01/21 11:14:56;;;;;;;25.02;11.18;;;3.40;76.00;;;;;;4984616;28;87485;-71
2023/01/21 11:17:51;;;;;;;26.83;11.68;;;3.70;75.30;;;;;;4976406;28;87688;-71
2023/01/21 11:20:40;;;;;;;26.20;11.85;;;3.80;74.40;;;;;;4962559;28;87530;-71
2023/01/21 11:23:27;;;;;;;26.45;12.23;;;3.90;74.50;;;;;;4976050;28;87599;-73
2023/01/21 11:26:19;;;;;;;26.83;13.00;;;4.00;74.30;;;;;;4968011;28;87522;-72
2023/01/21 11:28:45;;;;;;;26.45;12.10;;;3.90;74.00;;;;;;4981530;28;87838;-73
2023/01/21 11:31:25;;;;;;;23.13;11.10;;;3.60;74.90;;;;;;4992177;28;89061;-73
2023/01/21 11:33:52;;;;;;;25.67;12.27;;;3.40;74.90;;;;;;4964201;28;88797;-72
2023/01/21 11:36:19;;;;;;;25.20;11.98;;;3.40;75.80;;;;;;4994469;28;87490;-72
2023/01/21 11:39:00;;;;;;;24.00;11.27;;;3.30;75.20;;;;;;4990088;28;87181;-73
2023/01/21 11:41:27;;;;;;;24.65;11.35;;;3.20;75.80;;;;;;4996125;28;87972;-73
2023/01/21 11:44:18;;;;;;;22.77;9.60;;;2.90;76.80;;;;;;4984206;28;87741;-73
2023/01/21 11:46:44;;;;;;;24.60;9.95;;;2.80;77.30;;;;;;4970324;28;87325;-72
2023/01/21 11:49:10;;;;;;;26.83;12.32;;;2.80;80.00;;;;;;4979670;28;86636;-72
2023/01/21 11:51:40;;;;;;;29.08;12.75;;;2.50;78.40;;;;;;4978098;28;87144;-73
2023/01/21 11:54:06;;;;;;;23.23;10.85;;;2.50;79.40;;;;;;4992873;28;88421;-72
2023/01/21 11:56:31;;;;;;;20.83;9.88;;;2.50;79.40;;;;;;4976395;28;88788;-72
2023/01/21 11:58:57;;;;;;;26.25;11.75;;;2.50;80.50;;;;;;4980422;28;88847;-72
2023/01/21 12:01:23;;;;;;;26.67;11.98;;;2.40;79.50;;;;;;4961796;28;88625;-72
2023/01/21 12:03:52;;;;;;;26.48;10.88;;;2.50;79.50;;;;;;4976271;28;87949;-72
2023/01/21 12:06:22;;;;;;;20.05;8.43;;;2.70;80.10;;;;;;4992048;28;87177;-73
2023/01/21 12:08:50;;;;;;;16.77;7.30;;;2.70;79.90;;;;;;4988901;28;87576;-71
2023/01/21 12:11:23;;;;;;;16.40;6.93;;;2.60;77.90;;;;;;4983314;28;87979;-71
2023/01/21 12:13:54;;;;;;;15.90;6.20;;;2.70;78.40;;;;;;4981317;28;87249;-71
2023/01/21 12:16:26;;;;;;;15.35;6.30;;;2.80;79.50;;;;;;4968891;28;87470;-71
2023/01/21 12:19:17;;;;;;;18.50;7.03;;;2.90;78.70;;;;;;4979447;28;87143;-71
2023/01/21 12:22:10;;;;;;;17.27;7.07;;;2.90;78.70;;;;;;4981198;28;89440;-73
2023/01/21 12:25:02;;;;;;;16.00;6.93;;;2.90;79.90;;;;;;4971368;28;88737;-72
2023/01/21 12:27:40;;;;;;;18.48;7.10;;;3.00;77.10;;;;;;4966785;28;88363;-71
2023/01/21 12:30:21;;;;;;;16.65;7.03;;;3.10;77.90;;;;;;4988394;28;87541;-72
2023/01/21 12:33:04;;;;;;;18.15;7.32;;;3.20;78.20;;;;;;4986668;28;88194;-72
2023/01/21 12:35:47;;;;;;;20.92;7.80;;;3.30;77.60;;;;;;4978008;28;88094;-73
2023/01/21 12:38:18;;;;;;;19.83;7.78;;;3.40;76.30;;;;;;4978102;28;87605;-71
2023/01/21 12:41:01;;;;;;;15.75;6.53;;;3.50;77.50;;;;;;4979377;28;86381;-71
2023/01/21 12:43:41;;;;;;;14.38;6.20;;;3.60;78.00;;;;;;4984241;28;87765;-72
2023/01/21 12:46:24;;;;;;;20.27;8.10;;;3.50;75.90;;;;;;4992642;28;87947;-71
2023/01/21 12:48:56;;;;;;;19.23;8.05;;;3.40;74.70;;;;;;4966894;28;88504;-73
2023/01/21 12:52:00;;;;;;;15.27;6.15;;;3.40;76.50;;;;;;4978944;28;87451;-73
2023/01/21 12:54:39;;;;;;;15.90;6.25;;;3.40;75.40;;;;;;4985947;28;87724;-73
2023/01/21 12:57:32;;;;;;;16.98;7.00;;;3.50;75.00;;;;;;4986496;28;88501;-71
2023/01/21 13:00:17;;;;;;;14.10;6.05;;;3.60;74.10;;;;;;4968356;28;87483;-71
2023/01/21 13:02:48;;;;;;;15.00;6.10;;;3.40;72.70;;;;;;4978302;28;87672;-71
2023/01/21 13:05:20;;;;;;;17.08;6.43;;;3.30;73.30;;;;;;4965614;28;87943;-72